Time;durP1;ratioP1;P1;durP2;ratioP2;P2;SDS_P1;SDS_P2;PMS_P1;PMS_P2;Temp;Humidity;BMP_temperature;BMP_pressure;BME280_temperature;BME280_humidity;BME280_pressure;Samples;Min_cycle;Max_cycle;Signal;HPM_P1;HPM_P2
2022/02/04 00:02:57;;;;;;;12.57;9.45;;;;;;;9.44;61.78;98999.19;5092683;28;20099;-49
2022/02/04 00:28:57;;;;;;;11.65;8.48;;;;;;;8.36;62.77;99035.38;5092012;28;20075;-49
2022/02/04 00:31:18;;;;;;;12.70;8.02;;;;;;;8.34;62.41;99037.38;5088742;28;20048;-49
2022/02/04 00:33:47;;;;;;;12.55;8.50;;;;;;;8.39;62.98;99043.69;5091751;28;20094;-48
2022/02/04 00:36:24;;;;;;;9.77;7.85;;;;;;;8.37;62.38;99047.44;5091886;28;20025;-48
2022/02/04 00:38:54;;;;;;;10.48;8.00;;;;;;;8.38;62.78;99044.66;5091931;28;20024;-49
2022/02/04 00:41:24;;;;;;;14.20;8.63;;;;;;;8.33;62.15;99046.19;5091852;28;20024;-49
2022/02/04 00:43:52;;;;;;;10.88;8.23;;;;;;;8.21;62.78;99043.19;5091844;28;20030;-48
2022/02/04 00:46:25;;;;;;;9.13;8.10;;;;;;;8.17;63.28;99042.72;5091728;28;20020;-49
2022/02/04 00:49:08;;;;;;;9.45;7.90;;;;;;;8.18;62.56;99046.16;5091809;28;20063;-48
2022/02/04 01:13:23;;;;;;;15.05;9.35;;;;;;;7.87;63.53;99059.28;5095686;28;20031;-49
2022/02/04 01:26:45;;;;;;;10.90;8.75;;;;;;;7.73;63.80;99058.25;5095322;28;20089;-48
2022/02/04 01:29:12;;;;;;;9.35;7.78;;;;;;;7.71;64.21;99058.41;5093986;28;20028;-49
2022/02/04 01:31:38;;;;;;;12.18;8.20;;;;;;;7.69;64.39;99060.38;5094974;28;20450;-48
2022/02/04 01:34:03;;;;;;;11.38;8.48;;;;;;;7.73;63.81;99069.50;5095234;28;20135;-49
2022/02/04 01:36:29;;;;;;;10.88;8.73;;;;;;;7.76;63.63;99069.13;5095167;28;20024;-49
2022/02/04 01:38:55;;;;;;;11.45;8.73;;;;;;;7.76;64.32;99074.38;5093773;28;20034;-49
2022/02/04 01:41:21;;;;;;;10.10;8.00;;;;;;;7.82;63.99;99077.28;5095076;28;20026;-49
2022/02/04 01:43:48;;;;;;;10.40;7.28;;;;;;;7.91;63.91;99074.44;5095066;28;20504;-49
2022/02/04 01:46:14;;;;;;;10.88;7.65;;;;;;;7.98;63.87;99079.78;5094869;28;20017;-48
2022/02/04 01:48:41;;;;;;;10.25;7.40;;;;;;;8.12;63.69;99075.63;5095184;28;20028;-49
2022/02/04 01:51:10;;;;;;;9.45;8.07;;;;;;;8.26;62.85;99074.84;5093548;28;20020;-49
2022/02/04 01:53:37;;;;;;;11.80;10.10;;;;;;;8.43;62.56;99075.56;5094880;28;20020;-49
2022/02/04 01:56:06;;;;;;;11.90;8.45;;;;;;;8.57;62.45;99068.72;5094755;28;20035;-49
2022/02/04 01:58:33;;;;;;;9.95;8.30;;;;;;;8.66;62.12;99075.53;5094812;28;20309;-49
2022/02/04 02:00:59;;;;;;;10.63;8.10;;;;;;;8.73;61.85;99078.22;5093296;28;20073;-48
2022/02/04 02:03:25;;;;;;;13.70;8.82;;;;;;;8.79;61.92;99080.97;5093430;28;20024;-49
2022/02/04 02:05:54;;;;;;;15.25;9.57;;;;;;;8.91;61.65;99075.25;5094532;28;20028;-49
2022/02/04 02:08:20;;;;;;;74.28;59.38;;;;;;;8.92;61.16;99075.09;5094556;28;20028;-49
2022/02/04 02:10:48;;;;;;;97.88;87.90;;;;;;;9.02;60.77;99076.66;5093582;28;20017;-49
2022/02/04 02:13:24;;;;;;;28.52;23.90;;;;;;;9.02;60.97;99069.59;5094476;28;20383;-48
2022/02/04 02:16:02;;;;;;;42.38;34.47;;;;;;;9.08;60.43;99073.31;5094446;28;20028;-49
2022/02/04 02:38:50;;;;;;;8.05;6.72;;;;;;;9.11;59.05;99065.88;5094053;28;20558;-49
2022/02/04 02:43:31;;;;;;;8.80;7.65;;;;;;;9.19;58.71;99059.75;5093928;28;20081;-49
2022/02/04 02:46:09;;;;;;;10.85;6.70;;;;;;;9.20;58.71;99061.38;5093743;28;20024;-49
2022/02/04 02:59:24;;;;;;;7.82;7.00;;;;;;;9.33;57.93;99055.47;5093611;28;20063;-49
2022/02/04 03:01:51;;;;;;;15.25;7.10;;;;;;;9.31;58.16;99060.91;5093549;28;20069;-49
2022/02/04 03:04:17;;;;;;;8.27;6.55;;;;;;;9.31;58.32;99058.28;5093441;28;20047;-49
2022/02/04 03:06:47;;;;;;;8.82;7.22;;;;;;;9.29;58.33;99051.59;5091983;28;20494;-48
2022/02/04 03:09:15;;;;;;;12.40;7.85;;;;;;;9.31;58.19;99053.03;5093448;28;20038;-49
2022/02/04 03:11:41;;;;;;;8.32;6.50;;;;;;;9.33;58.11;99050.25;5093287;28;20013;-49
2022/02/04 03:14:08;;;;;;;9.35;6.88;;;;;;;9.25;57.87;99051.16;5093263;28;20030;-49
2022/02/04 03:16:34;;;;;;;12.75;6.82;;;;;;;9.16;58.02;99057.50;5093251;28;20020;-49
2022/02/04 03:19:02;;;;;;;13.05;7.40;;;;;;;9.01;58.22;99054.88;5093140;28;20436;-49
2022/02/04 03:21:43;;;;;;;7.20;6.30;;;;;;;8.86;58.59;99052.25;5093104;28;20493;-49
2022/02/04 03:24:13;;;;;;;8.57;7.22;;;;;;;8.74;58.35;99051.88;5093122;28;20106;-49
2022/02/04 03:27:01;;;;;;;10.45;6.78;;;;;;;8.59;58.90;99066.75;5092966;28;20043;-49
2022/02/04 03:29:32;;;;;;;19.17;8.18;;;;;;;8.46;59.28;99056.91;5093029;28;20093;-49
2022/02/04 03:32:04;;;;;;;11.88;6.82;;;;;;;8.38;59.49;99054.31;5092719;28;20048;-49
2022/02/04 03:34:30;;;;;;;10.00;7.22;;;;;;;8.34;59.83;99060.91;5092876;28;20020;-49
2022/02/04 03:36:56;;;;;;;10.13;6.68;;;;;;;8.32;59.58;99065.50;5091508;28;20061;-49
2022/02/04 03:39:21;;;;;;;6.75;6.05;;;;;;;8.30;59.55;99062.25;5092790;28;20028;-48
2022/02/04 03:41:47;;;;;;;7.80;6.78;;;;;;;8.25;59.76;99069.78;5092717;28;20020;-49
2022/02/04 03:44:13;;;;;;;13.77;6.70;;;;;;;8.15;59.69;99070.06;5091412;28;20109;-49
2022/02/04 03:46:38;;;;;;;9.15;7.28;;;;;;;8.07;59.71;99070.09;5092577;28;20024;-49
2022/02/04 03:49:04;;;;;;;7.95;6.72;;;;;;;7.97;59.69;99070.34;5092668;28;20016;-49
2022/02/04 03:51:30;;;;;;;10.90;7.90;;;;;;;7.87;60.06;99067.94;5092578;28;20504;-49
2022/02/04 03:53:55;;;;;;;8.50;6.32;;;;;;;7.77;60.07;99060.31;5091210;28;20511;-49
2022/02/04 03:56:21;;;;;;;8.52;6.90;;;;;;;7.72;59.86;99065.25;5092516;28;20031;-49
2022/02/04 03:58:47;;;;;;;7.95;6.57;;;;;;;7.66;60.71;99071.16;5092439;28;20485;-48
2022/02/04 04:01:13;;;;;;;10.50;6.60;;;;;;;7.55;60.26;99074.19;5091087;28;20039;-48
2022/02/04 04:03:40;;;;;;;8.38;6.18;;;;;;;7.55;61.00;99074.19;5092369;28;20535;-48
2022/02/04 04:06:06;;;;;;;7.78;6.28;;;;;;;7.57;60.58;99072.22;5092252;28;20032;-49
2022/02/04 04:08:32;;;;;;;8.50;6.07;;;;;;;7.59;60.54;99078.88;5090966;28;20020;-48
2022/02/04 04:10:57;;;;;;;10.07;6.45;;;;;;;7.66;60.41;99070.34;5092273;28;20442;-49
2022/02/04 04:13:23;;;;;;;31.90;9.20;;;;;;;7.69;60.71;99070.03;5092226;28;20020;-49
2022/02/04 04:15:49;;;;;;;7.72;5.90;;;;;;;7.69;61.04;99072.63;5092114;28;20028;-48
2022/02/04 04:18:15;;;;;;;8.32;6.40;;;;;;;7.68;60.46;99069.19;5092228;28;20097;-48
2022/02/04 04:20:44;;;;;;;7.38;5.72;;;;;;;7.63;60.76;99074.13;5092091;28;20073;-49
2022/02/04 04:23:10;;;;;;;13.45;7.47;;;;;;;7.38;60.64;99065.59;5092130;28;20020;-49
2022/02/04 04:25:37;;;;;;;7.35;5.97;;;;;;;7.23;60.57;99069.91;5091884;28;20035;-48
2022/02/04 04:28:03;;;;;;;15.20;7.25;;;;;;;6.94;61.51;99066.91;5092057;28;20016;-49
2022/02/04 04:30:29;;;;;;;9.18;6.63;;;;;;;6.75;61.88;99064.66;5091984;28;20111;-48
2022/02/04 04:32:57;;;;;;;9.85;7.13;;;;;;;6.59;62.63;99058.47;5091243;28;20512;-49
2022/02/04 04:35:25;;;;;;;8.65;6.28;;;;;;;6.47;62.66;99059.81;5091909;28;20112;-49
2022/02/04 04:43:13;;;;;;;8.00;6.72;;;;;;;5.98;64.20;99046.78;5091840;28;20024;-49
2022/02/04 04:46:10;;;;;;;8.57;6.55;;;;;;;5.95;64.13;99055.72;5091784;28;20435;-50
2022/02/04 05:29:19;;;;;;;13.90;6.18;;;;;;;5.38;66.00;99071.19;5091447;28;20028;-48
2022/02/04 05:31:46;;;;;;;10.32;6.22;;;;;;;5.36;65.70;99071.34;5091098;28;20016;-48
2022/02/04 05:34:18;;;;;;;11.48;7.68;;;;;;;5.31;66.10;99067.56;5091488;28;20089;-49
2022/02/04 05:36:47;;;;;;;8.25;5.95;;;;;;;5.27;66.32;99069.69;5091420;28;20035;-48
2022/02/04 05:39:15;;;;;;;20.08;10.98;;;;;;;5.27;66.09;99064.50;5091429;28;20493;-48
2022/02/04 05:41:46;;;;;;;10.18;6.68;;;;;;;5.27;66.31;99066.25;5091309;28;20024;-48
2022/02/04 05:44:14;;;;;;;9.68;5.95;;;;;;;5.16;66.20;99067.34;5091736;28;20025;-48
2022/02/04 05:46:51;;;;;;;9.65;5.70;;;;;;;5.12;66.48;99072.06;5094878;28;20024;-48
2022/02/04 05:49:20;;;;;;;12.10;6.10;;;;;;;5.15;66.39;99076.13;5094994;28;20077;-48
2022/02/04 05:51:59;;;;;;;9.95;6.45;;;;;;;5.09;66.18;99068.94;5094878;28;20034;-48
2022/02/04 05:54:45;;;;;;;9.90;6.15;;;;;;;4.98;66.71;99070.03;5094943;28;20025;-49
2022/02/04 05:57:16;;;;;;;7.35;4.82;;;;;;;4.95;67.65;99067.72;5093534;28;20028;-48
2022/02/04 06:02:37;;;;;;;13.82;7.90;;;;;;;4.79;68.02;99065.88;5094758;28;20086;-49
2022/02/04 06:05:15;;;;;;;10.75;7.47;;;;;;;4.76;68.62;99072.19;5094711;28;20024;-48
2022/02/04 06:14:11;;;;;;;8.85;6.15;;;;;;;5.03;68.60;99059.16;5094562;28;20032;-48
2022/02/04 06:24:04;;;;;;;20.65;7.80;;;;;;;5.30;67.32;99071.97;5094642;28;20620;-49
2022/02/04 06:26:33;;;;;;;15.85;6.90;;;;;;;5.51;67.66;99079.34;5094156;28;20028;-49
2022/02/04 06:28:59;;;;;;;9.75;7.00;;;;;;;5.72;66.78;99070.31;5094255;28;20103;-48
2022/02/04 06:31:25;;;;;;;18.00;9.48;;;;;;;5.91;66.82;99069.19;5094145;28;20035;-49
2022/02/04 06:33:51;;;;;;;18.42;8.35;;;;;;;6.13;66.14;99073.00;5093858;28;20078;-49
2022/02/04 06:36:17;;;;;;;14.60;8.20;;;;;;;6.33;65.38;99069.09;5094005;28;20027;-48
2022/02/04 06:38:43;;;;;;;14.68;8.18;;;;;;;6.51;64.36;99076.75;5094022;28;20020;-49
2022/02/04 06:41:08;;;;;;;16.85;8.15;;;;;;;6.50;63.72;99067.31;5093919;28;20024;-48
2022/02/04 06:43:35;;;;;;;14.70;12.27;;;;;;;6.52;64.23;99075.78;5093943;28;20024;-49
2022/02/04 06:46:02;;;;;;;20.17;8.45;;;;;;;6.59;63.50;99076.72;5093771;28;20028;-48
2022/02/04 06:48:28;;;;;;;8.23;6.40;;;;;;;6.69;63.04;99073.16;5092487;28;20027;-48
2022/02/04 06:50:54;;;;;;;17.25;7.80;;;;;;;6.66;62.98;99076.91;5093753;28;20024;-49
2022/02/04 06:53:20;;;;;;;16.50;8.73;;;;;;;6.54;63.57;99080.81;5093696;28;20463;-48
2022/02/04 06:55:45;;;;;;;15.63;8.82;;;;;;;6.34;63.84;99081.16;5092027;28;20032;-48
2022/02/04 06:58:12;;;;;;;23.92;8.48;;;;;;;6.17;64.11;99077.72;5093594;28;20028;-48
2022/02/04 07:00:39;;;;;;;15.38;9.02;;;;;;;6.10;64.69;99081.16;5093505;28;20016;-48
2022/02/04 07:03:05;;;;;;;14.18;8.88;;;;;;;5.98;64.68;99076.25;5093548;28;20020;-49
2022/02/04 07:05:39;;;;;;;20.40;17.02;;;;;;;5.92;64.65;99082.06;5093354;28;20103;-48
2022/02/04 07:08:22;;;;;;;21.88;11.57;;;;;;;5.82;65.29;99078.81;5093524;28;20036;-48
2022/02/04 07:13:21;;;;;;;17.67;8.90;;;;;;;5.67;65.24;99075.97;5093338;28;20032;-49
2022/02/04 07:15:54;;;;;;;14.20;9.13;;;;;;;5.69;65.52;99076.63;5093321;28;20059;-49
2022/02/04 07:21:03;;;;;;;22.77;10.10;;;;;;;6.14;64.75;99074.66;5093228;28;20063;-49
2022/02/04 07:23:29;;;;;;;21.15;10.15;;;;;;;6.23;64.02;99076.25;5093152;28;20541;-48
2022/02/04 07:25:55;;;;;;;16.02;9.98;;;;;;;6.22;63.91;99077.25;5093015;28;20482;-49
2022/02/04 07:28:23;;;;;;;24.92;10.48;;;;;;;6.21;64.12;99075.59;5093004;28;20028;-49
2022/02/04 07:30:48;;;;;;;14.98;8.40;;;;;;;6.33;64.37;99076.09;5091718;28;20438;-49
2022/02/04 07:33:21;;;;;;;22.92;8.90;;;;;;;7.04;63.84;99065.88;5092692;28;20044;-48
2022/02/04 07:41:03;;;;;;;20.30;8.15;;;;;;;7.31;60.62;99067.28;5092838;28;20024;-48
2022/02/04 07:43:29;;;;;;;16.73;8.02;;;;;;;7.11;60.34;99074.69;5092837;28;20035;-49
2022/02/04 07:45:56;;;;;;;14.27;8.43;;;;;;;7.00;61.64;99074.06;5091341;28;20031;-49
2022/02/04 07:48:23;;;;;;;9.75;7.40;;;;;;;7.15;60.61;99073.34;5092697;28;20028;-47
2022/02/04 07:50:50;;;;;;;15.60;7.57;;;;;;;7.11;60.93;99070.25;5092592;28;20016;-49
2022/02/04 07:53:17;;;;;;;16.95;8.90;;;;;;;7.11;60.54;99075.47;5092576;28;20024;-49
2022/02/04 07:55:43;;;;;;;17.58;7.57;;;;;;;6.94;60.92;99077.34;5092516;28;20020;-49
2022/02/04 07:58:11;;;;;;;19.05;8.75;;;;;;;6.78;60.94;99079.97;5092515;28;20031;-49
2022/02/04 08:00:39;;;;;;;16.80;8.60;;;;;;;6.76;62.23;99074.09;5092455;28;20507;-49
2022/02/04 08:03:29;;;;;;;14.15;8.32;;;;;;;6.76;61.92;99076.69;5092432;28;20017;-48
2022/02/04 08:05:53;;;;;;;41.03;33.40;;;;;;;6.78;61.82;99072.97;5092034;28;20035;-49
2022/02/04 08:08:27;;;;;;;29.90;22.38;;;;;;;6.77;62.28;99084.38;5091651;28;20089;-49
2022/02/04 08:13:48;;;;;;;18.08;11.65;;;;;;;7.22;61.48;99081.31;5092293;28;20024;-49
2022/02/04 08:24:40;;;;;;;14.50;7.55;;;;;;;7.27;60.91;99095.50;5092335;28;20123;-49
2022/02/04 08:32:21;;;;;;;13.93;7.38;;;;;;;7.67;61.29;99093.69;5091985;28;20051;-48
2022/02/04 08:35:47;;;;;;;11.25;6.63;;;;;;;7.87;60.50;99085.41;5090655;28;20402;-49
2022/02/04 08:55:57;;;;;;;28.85;8.25;;;;;;;9.48;57.11;99100.00;5091796;28;20043;-49
2022/02/04 09:01:04;;;;;;;34.83;9.55;;;;;;;9.67;56.90;99103.84;5092068;28;20075;-49
2022/02/04 09:06:15;;;;;;;22.63;8.80;;;;;;;9.84;56.60;99097.41;5091602;28;20038;-49
2022/02/04 09:08:45;;;;;;;20.60;7.65;;;;;;;9.82;56.01;99098.56;5091694;28;20036;-49
2022/02/04 09:11:16;;;;;;;24.92;7.65;;;;;;;9.74;56.21;99097.69;5091573;28;20071;-48
2022/02/04 09:19:18;;;;;;;19.13;6.78;;;;;;;10.49;54.86;99087.75;5093512;28;20081;-49
2022/02/04 09:24:11;;;;;;;15.35;7.82;;;;;;;10.83;54.54;99094.06;5095468;28;20035;-49
2022/02/04 09:26:38;;;;;;;13.90;6.97;;;;;;;10.91;53.65;99095.72;5095301;28;20032;-49
2022/02/04 09:29:05;;;;;;;18.60;7.75;;;;;;;10.91;53.69;99093.09;5095392;28;20431;-49
2022/02/04 09:31:31;;;;;;;17.40;7.35;;;;;;;11.15;53.29;99092.63;5093977;28;20024;-49
2022/02/04 09:33:56;;;;;;;22.13;7.65;;;;;;;11.42;52.56;99095.38;5095047;28;20066;-49
2022/02/04 09:36:22;;;;;;;16.15;7.93;;;;;;;11.66;52.48;99088.00;5076937;28;20032;-50
2022/02/04 09:38:48;;;;;;;12.93;6.32;;;;;;;11.90;51.93;99082.25;5093861;28;20084;-49
2022/02/04 09:41:17;;;;;;;14.30;6.75;;;;;;;12.16;51.39;99085.94;5095097;28;20039;-49
2022/02/04 09:43:43;;;;;;;23.25;7.20;;;;;;;12.46;50.51;99085.56;5095098;28;20016;-50
2022/02/04 09:46:09;;;;;;;24.77;8.80;;;;;;;12.59;49.97;99083.69;5093561;28;20063;-49
2022/02/04 09:48:34;;;;;;;31.05;9.50;;;;;;;12.71;49.70;99091.00;5094997;28;20020;-50
2022/02/04 09:51:01;;;;;;;24.77;9.25;;;;;;;12.77;49.84;99085.72;5094890;28;20118;-50
2022/02/04 10:07:29;;;;;;;15.57;7.53;;;;;;;14.13;46.52;99093.78;5094600;28;20028;-49
2022/02/04 10:20:52;;;;;;;12.60;6.85;;;;;;;13.87;46.08;99098.19;5094383;28;20106;-50
2022/02/04 10:23:18;;;;;;;12.55;5.95;;;;;;;13.78;46.16;99092.34;5094344;28;20100;-50
2022/02/04 10:25:44;;;;;;;9.25;5.88;;;;;;;13.77;45.51;99098.63;5094223;28;20016;-50
2022/02/04 10:28:24;;;;;;;11.60;5.63;;;;;;;13.74;45.80;99095.59;5092883;28;20024;-50
2022/02/04 10:31:08;;;;;;;18.67;6.35;;;;;;;13.65;46.20;99102.16;5093502;28;20028;-50
2022/02/04 10:34:10;;;;;;;21.23;6.30;;;;;;;13.51;45.94;99101.38;5093908;28;20047;-50
2022/02/04 10:51:13;;;;;;;11.30;5.32;;;;;;;12.76;47.22;99086.75;5093787;28;20036;-49
2022/02/04 11:04:01;;;;;;;6.45;4.28;;;;;;;12.95;46.65;99094.81;5093614;28;20055;-49
2022/02/04 11:09:24;;;;;;;10.80;4.75;;;;;;;13.24;46.01;99084.81;5093779;28;20123;-50
2022/02/04 11:31:21;;;;;;;12.88;6.00;;;;;;;12.62;47.97;99085.13;5093028;28;20074;-49
2022/02/04 11:34:37;;;;;;;14.30;5.88;;;;;;;12.62;48.29;99084.34;5092731;28;20521;-50
2022/02/04 11:51:40;;;;;;;12.55;6.15;;;;;;;13.34;46.82;99032.50;5092671;28;20035;-49
2022/02/04 11:54:41;;;;;;;9.32;5.97;;;;;;;13.48;47.15;99038.50;5092673;28;20161;-50
2022/02/04 11:57:07;;;;;;;7.90;6.20;;;;;;;13.80;46.73;99036.72;5077351;28;20089;-50
2022/02/04 11:59:43;;;;;;;8.25;5.47;;;;;;;14.08;45.75;99040.81;5092497;28;20498;-49
2022/02/04 12:02:26;;;;;;;9.15;5.80;;;;;;;14.21;44.98;99039.91;5092455;28;20498;-49
2022/02/04 12:05:18;;;;;;;44.47;8.00;;;;;;;13.77;45.53;99037.16;5092373;28;20099;-50
2022/02/04 12:07:50;;;;;;;21.58;6.47;;;;;;;13.52;46.41;99040.53;5083956;28;20042;-50
2022/02/04 12:10:16;;;;;;;22.33;7.18;;;;;;;13.53;45.90;99043.97;5092384;28;20081;-49
2022/02/04 12:13:00;;;;;;;14.20;6.55;;;;;;;13.52;45.89;99039.72;5091028;28;20024;-50
2022/02/04 12:15:31;;;;;;;18.50;6.45;;;;;;;13.46;45.89;99041.38;5090962;28;20502;-50
2022/02/04 12:18:03;;;;;;;11.90;6.25;;;;;;;13.33;45.85;99029.06;5092187;28;20451;-49
2022/02/04 12:20:47;;;;;;;18.15;7.50;;;;;;;13.19;46.56;99035.38;5092158;28;20024;-50
2022/02/04 12:23:36;;;;;;;15.70;6.60;;;;;;;13.12;46.47;99021.41;5092124;28;20020;-49
2022/02/04 12:26:19;;;;;;;9.13;6.35;;;;;;;12.92;46.71;99021.47;5092033;28;20456;-49
2022/02/04 12:29:03;;;;;;;10.73;5.72;;;;;;;13.01;47.18;99019.41;5092095;28;20125;-49
2022/02/04 12:31:32;;;;;;;10.70;5.50;;;;;;;13.16;46.84;99015.53;5092067;28;20397;-50
2022/02/04 12:34:25;;;;;;;11.98;5.82;;;;;;;13.39;46.70;99001.03;5091831;28;20032;-49
2022/02/04 12:36:54;;;;;;;13.02;5.32;;;;;;;13.69;46.31;99009.19;5090640;28;20032;-50
2022/02/04 12:39:23;;;;;;;12.30;6.57;;;;;;;14.05;44.93;98997.19;5091983;28;20378;-50
2022/02/04 12:42:00;;;;;;;9.85;4.95;;;;;;;13.88;44.64;98990.81;5091883;28;20024;-49
2022/02/04 12:44:29;;;;;;;10.25;4.82;;;;;;;13.85;45.22;98986.78;5091941;28;20393;-49
2022/02/04 12:46:58;;;;;;;10.82;3.83;;;;;;;14.34;44.35;98977.22;5090440;28;20024;-50
2022/02/04 12:49:29;;;;;;;8.13;4.45;;;;;;;14.74;43.12;98968.13;5091867;28;20502;-50
2022/02/04 12:52:16;;;;;;;11.02;4.28;;;;;;;14.80;42.97;98972.53;5091772;28;20063;-50
2022/02/04 13:00:20;;;;;;;7.57;4.20;;;;;;;14.37;43.67;98971.53;5095901;28;20047;-49
2022/02/04 13:10:34;;;;;;;10.68;3.92;;;;;;;16.05;40.63;98944.56;5095782;28;20411;-51
2022/02/04 13:13:03;;;;;;;6.15;4.18;;;;;;;16.05;40.24;98952.50;5095715;28;20036;-51
2022/02/04 13:15:34;;;;;;;4.53;2.75;;;;;;;16.37;39.47;98946.88;5095667;28;20062;-50
2022/02/04 13:18:07;;;;;;;5.30;3.55;;;;;;;16.09;39.43;98932.47;5094390;28;20032;-50
2022/02/04 13:20:34;;;;;;;9.77;3.80;;;;;;;16.12;40.40;98925.94;5095644;28;20024;-50
2022/02/04 13:23:24;;;;;;;7.25;3.28;;;;;;;16.24;39.76;98934.69;5094218;28;20077;-50
2022/02/04 13:25:52;;;;;;;3.85;2.90;;;;;;;16.46;38.92;98928.78;5095406;28;20032;-50
2022/02/04 13:28:26;;;;;;;12.18;4.63;;;;;;;16.69;39.43;98931.41;5095403;28;20443;-50
2022/02/04 13:31:04;;;;;;;6.53;3.30;;;;;;;17.13;37.83;98930.97;5095391;28;20024;-51
2022/02/04 13:33:33;;;;;;;3.95;2.47;;;;;;;16.97;37.20;98941.25;5095026;28;20075;-50
2022/02/04 13:36:20;;;;;;;7.85;2.38;;;;;;;16.72;37.57;98938.88;5093913;28;20024;-49
2022/02/04 13:39:12;;;;;;;6.55;2.30;;;;;;;16.52;38.34;98930.50;5095249;28;20070;-50
2022/02/04 13:52:51;;;;;;;4.47;2.42;;;;;;;15.87;38.83;98912.91;5095038;28;20032;-50
2022/02/04 13:55:55;;;;;;;;;;;;;;;15.85;39.23;98907.84;5094030;28;20561;-50
2022/02/04 14:01:17;;;;;;;4.93;2.03;;;;;;;15.59;39.37;98893.16;5095133;28;20042;-49
2022/02/04 14:03:54;;;;;;;2.47;1.65;;;;;;;15.39;40.06;98896.13;5095028;28;20379;-50
2022/02/04 14:06:27;;;;;;;5.57;2.60;;;;;;;15.36;40.18;98897.38;5093465;28;20032;-51
2022/02/04 14:08:57;;;;;;;10.00;4.55;;;;;;;15.14;40.78;98893.63;5094648;28;20487;-50
2022/02/04 14:11:49;;;;;;;9.00;3.13;;;;;;;14.88;41.09;98895.59;5094599;28;20028;-49
2022/02/04 14:14:28;;;;;;;8.95;2.55;;;;;;;14.55;41.55;98902.06;5091529;28;20039;-50
2022/02/04 14:17:04;;;;;;;13.68;4.95;;;;;;;14.42;41.79;98896.91;5094498;28;20030;-50
2022/02/04 14:19:30;;;;;;;9.25;2.00;;;;;;;14.14;42.35;98900.84;5093167;28;20032;-50
2022/02/04 14:21:59;;;;;;;4.95;1.90;;;;;;;13.76;42.80;98901.81;5094370;28;20055;-50
2022/02/04 14:24:26;;;;;;;21.80;6.65;;;;;;;13.43;43.82;98902.06;5094365;28;20016;-49
2022/02/04 14:26:54;;;;;;;8.25;2.95;;;;;;;13.18;44.16;98897.53;5092886;28;20518;-49
2022/02/04 14:31:54;;;;;;;15.40;4.55;;;;;;;12.84;46.17;98901.34;5093824;28;20201;-50
2022/02/04 14:53:26;;;;;;;8.02;2.28;;;;;;;13.33;44.49;98914.91;5093848;28;20758;-50
2022/02/04 14:59:02;;;;;;;2.72;1.45;;;;;;;13.12;44.41;98919.44;5093993;28;20064;-50
2022/02/04 15:01:34;;;;;;;9.90;2.05;;;;;;;13.02;45.19;98919.09;5093364;28;20058;-49
2022/02/04 15:04:10;;;;;;;9.20;2.40;;;;;;;12.93;45.33;98915.88;5093687;28;20027;-49
2022/02/04 15:06:41;;;;;;;6.15;1.95;;;;;;;12.84;45.63;98909.25;5093726;28;20169;-50
2022/02/04 15:09:13;;;;;;;7.85;2.88;;;;;;;12.59;46.42;98917.81;5093563;28;20024;-50
2022/02/04 15:11:43;;;;;;;6.97;3.30;;;;;;;12.32;46.36;98921.56;5092064;28;20405;-50
2022/02/04 15:14:11;;;;;;;10.88;2.72;;;;;;;12.03;47.56;98920.19;5093432;28;20088;-49
2022/02/04 15:16:37;;;;;;;10.70;5.68;;;;;;;12.02;47.61;98918.56;5093098;28;20028;-49
2022/02/04 15:19:04;;;;;;;18.27;5.13;;;;;;;12.06;48.00;98925.84;5093325;28;20069;-49
2022/02/04 15:21:31;;;;;;;6.50;2.65;;;;;;;12.17;47.40;98927.88;5093189;28;20020;-50
2022/02/04 15:23:58;;;;;;;10.15;3.03;;;;;;;12.19;47.68;98933.72;5091866;28;20024;-49
2022/02/04 15:26:28;;;;;;;5.57;2.97;;;;;;;12.36;47.20;98935.94;5093125;28;20541;-49
2022/02/04 15:31:44;;;;;;;15.32;3.30;;;;;;;12.65;46.68;98926.72;5093049;28;20090;-49
2022/02/04 15:34:11;;;;;;;6.38;3.75;;;;;;;12.90;46.78;98926.06;5093049;28;20035;-49
2022/02/04 15:36:42;;;;;;;8.65;2.63;;;;;;;13.08;46.08;98917.44;5092879;28;20469;-50
2022/02/04 15:39:12;;;;;;;12.32;2.97;;;;;;;13.16;46.20;98912.75;5093036;28;20016;-49
2022/02/04 15:41:38;;;;;;;7.22;2.17;;;;;;;13.17;45.66;98909.06;5092901;28;20028;-50
2022/02/04 15:44:14;;;;;;;10.48;2.90;;;;;;;13.10;45.70;98907.50;5092822;28;20553;-50
2022/02/04 16:00:01;;;;;;;2.72;2.05;;;;;;;12.49;46.37;98914.81;5092505;28;20035;-50
2022/02/04 16:04:58;;;;;;;7.50;3.30;;;;;;;12.06;48.11;98912.69;5092493;28;20016;-49
2022/02/04 16:07:25;;;;;;;4.72;2.10;;;;;;;12.09;48.08;98914.94;5090958;28;20028;-49
2022/02/04 16:10:13;;;;;;;6.05;3.05;;;;;;;12.04;48.35;98919.97;5092396;28;20052;-49
2022/02/04 16:12:52;;;;;;;8.70;2.03;;;;;;;11.93;47.98;98928.47;5092366;28;20051;-49
2022/02/04 16:15:35;;;;;;;15.70;2.78;;;;;;;11.85;48.35;98928.66;5092334;28;20106;-49
2022/02/04 16:18:08;;;;;;;5.90;1.92;;;;;;;11.82;48.56;98921.19;5091006;28;20081;-49
2022/02/04 16:23:33;;;;;;;6.18;1.95;;;;;;;11.57;48.92;98924.41;5092424;28;20035;-49
2022/02/04 16:28:41;;;;;;;5.45;2.13;;;;;;;11.25;49.98;98928.56;5091506;28;20537;-49
2022/02/04 16:31:14;;;;;;;8.48;2.45;;;;;;;11.16;50.11;98941.09;5092111;28;20028;-49
2022/02/04 16:33:41;;;;;;;8.27;2.92;;;;;;;11.11;50.53;98943.50;5091775;28;20044;-49
2022/02/04 16:36:15;;;;;;;11.02;3.25;;;;;;;11.18;50.91;98946.94;5091932;28;20031;-49
2022/02/04 16:38:44;;;;;;;7.30;2.33;;;;;;;11.19;50.60;98949.38;5090685;28;20028;-50
2022/02/04 16:41:13;;;;;;;6.82;2.88;;;;;;;11.18;50.70;98947.75;5091937;28;20028;-50
2022/02/04 16:43:40;;;;;;;6.78;2.50;;;;;;;11.25;50.74;98937.28;5091856;28;20013;-50
2022/02/04 16:46:07;;;;;;;13.45;2.80;;;;;;;11.32;50.72;98937.28;5091799;28;20020;-49
2022/02/04 16:48:35;;;;;;;5.30;2.15;;;;;;;11.26;50.08;98946.75;5090553;28;20524;-48
2022/02/04 16:51:02;;;;;;;13.30;3.80;;;;;;;11.19;50.64;98940.69;5091836;28;20020;-51
2022/02/04 16:53:27;;;;;;;11.68;2.63;;;;;;;11.26;50.66;98946.75;5091865;28;20512;-50
2022/02/04 16:55:54;;;;;;;6.82;2.10;;;;;;;11.27;50.15;98944.94;5091806;28;20028;-50
2022/02/04 16:58:21;;;;;;;6.88;2.47;;;;;;;11.19;51.15;98946.75;5090452;28;20077;-50
2022/02/04 17:00:47;;;;;;;13.32;3.50;;;;;;;11.16;51.67;98959.47;5091720;28;20032;-49
2022/02/04 17:03:13;;;;;;;8.60;2.83;;;;;;;11.03;52.12;98962.03;5090436;28;20451;-50
2022/02/04 17:08:13;;;;;;;9.48;3.60;;;;;;;11.21;51.78;98975.47;5091733;28;20099;-49
2022/02/04 17:10:43;;;;;;;12.43;4.20;;;;;;;11.43;51.36;98977.94;5091917;28;20020;-50
2022/02/04 17:13:10;;;;;;;7.20;3.72;;;;;;;11.51;50.77;98985.63;5091681;28;20074;-50
2022/02/04 17:15:39;;;;;;;3.55;2.17;;;;;;;11.48;50.44;98994.72;5091592;28;20028;-49
2022/02/04 17:18:06;;;;;;;6.65;2.70;;;;;;;11.42;51.10;98982.38;5091614;28;20048;-49
2022/02/04 17:20:33;;;;;;;16.00;4.53;;;;;;;11.48;53.02;98983.41;5091574;28;20027;-50
2022/02/04 17:23:03;;;;;;;8.57;2.90;;;;;;;11.39;54.15;98988.06;5090322;28;20043;-50
2022/02/04 17:25:35;;;;;;;13.52;3.63;;;;;;;11.02;55.38;98989.31;5090112;28;20032;-49
2022/02/04 17:28:02;;;;;;;7.13;2.90;;;;;;;10.54;55.97;98992.69;5091513;28;20016;-49
2022/02/04 17:30:28;;;;;;;9.45;3.25;;;;;;;10.32;55.89;98999.81;5090116;28;20405;-50
2022/02/04 17:32:55;;;;;;;7.70;3.03;;;;;;;10.29;55.48;98993.09;5089912;28;20044;-50
2022/02/04 17:35:24;;;;;;;6.47;3.90;;;;;;;10.25;55.56;99002.34;5091425;28;20107;-49
2022/02/04 17:37:52;;;;;;;23.17;16.27;;;;;;;10.31;55.03;99003.44;5091391;28;20036;-49
2022/02/04 17:40:18;;;;;;;13.38;6.57;;;;;;;10.33;55.13;98998.81;5093439;28;20013;-49
2022/02/04 17:42:46;;;;;;;21.27;17.02;;;;;;;10.33;55.01;99006.69;5095164;28;20027;-50
2022/02/04 17:45:17;;;;;;;47.08;31.42;;;;;;;10.29;55.11;99002.78;5095123;28;20013;-49
2022/02/04 17:47:51;;;;;;;12.15;7.90;;;;;;;10.18;55.17;99011.97;5095032;28;20034;-49
2022/02/04 17:50:24;;;;;;;7.00;4.28;;;;;;;10.21;55.28;99014.22;5095058;28;20562;-49
2022/02/04 17:52:58;;;;;;;8.65;4.18;;;;;;;10.15;54.87;99028.09;5095025;28;20432;-49
2022/02/04 17:55:30;;;;;;;5.60;3.90;;;;;;;10.22;55.57;99022.91;5094946;28;20026;-49
2022/02/04 17:58:08;;;;;;;5.95;3.15;;;;;;;10.36;54.65;99019.41;5094928;28;20032;-50
2022/02/04 18:00:57;;;;;;;10.02;4.55;;;;;;;10.53;55.12;99017.31;5094869;28;20580;-50
2022/02/04 18:08:43;;;;;;;9.63;4.63;;;;;;;10.86;54.03;99014.09;5074762;28;20062;-49
2022/02/04 18:11:09;;;;;;;5.22;3.03;;;;;;;11.06;52.52;99020.25;5093202;28;20501;-49